createdAt,value
2023-01-15T11:03:22.537Z,36.42
2023-01-15T11:05:49.818Z,30.15
2023-01-15T11:11:44.876Z,31.52
2023-01-15T11:14:30.609Z,43.80
2023-01-15T11:17:16.310Z,31.75
2023-01-15T11:19:45.021Z,31.95
2023-01-15T11:22:17.607Z,30.25
2023-01-15T11:29:59.631Z,29.75
2023-01-15T11:32:34.224Z,27.67
2023-01-15T11:35:18.687Z,28.48
2023-01-15T11:37:45.548Z,27.50
2023-01-15T11:40:22.283Z,27.92
2023-01-15T11:43:09.170Z,32.03
2023-01-15T11:46:05.880Z,29.35
2023-01-15T11:49:03.406Z,35.15
2023-01-15T11:51:35.601Z,28.45
2023-01-15T11:54:05.363Z,36.55
2023-01-15T11:56:35.324Z,28.45
2023-01-15T11:59:10.808Z,28.23
2023-01-15T12:01:47.467Z,27.83
2023-01-15T12:04:26.769Z,38.60
2023-01-15T12:06:54.233Z,27.10
2023-01-15T12:09:48.861Z,28.73
2023-01-15T12:12:55.721Z,33.42
2023-01-15T12:15:55.016Z,31.10
2023-01-15T12:18:28.712Z,29.45
2023-01-15T12:21:34.676Z,28.35
2023-01-15T12:24:28.913Z,27.42
2023-01-15T12:27:30.416Z,28.63
2023-01-15T12:30:03.421Z,31.52
2023-01-15T12:32:40.318Z,30.20
2023-01-15T12:35:22.697Z,27.60
2023-01-15T12:38:01.549Z,28.38
2023-01-15T12:40:41.599Z,33.33
2023-01-15T12:43:37.812Z,31.40
2023-01-15T12:46:07.202Z,29.65
2023-01-15T12:48:37.397Z,31.05
2023-01-15T12:51:06.480Z,31.10
2023-01-15T12:53:55.816Z,30.83
2023-01-15T12:56:33.122Z,28.60
2023-01-15T12:59:18.501Z,31.35
2023-01-15T13:02:13.405Z,31.85
2023-01-15T13:04:48.091Z,32.00
2023-01-15T13:07:25.024Z,36.53
2023-01-15T13:10:10.496Z,40.15
2023-01-15T13:12:37.312Z,39.03
2023-01-15T13:15:05.167Z,38.10
2023-01-15T13:17:34.985Z,42.03
2023-01-15T13:20:23.168Z,41.35
2023-01-15T13:22:59.364Z,32.95
2023-01-15T13:25:45.827Z,39.88
2023-01-15T13:28:16.736Z,36.63
2023-01-15T13:30:52.155Z,32.45
2023-01-15T13:33:40.749Z,39.55
2023-01-15T13:36:37.080Z,33.10
2023-01-15T13:39:07.257Z,35.10
2023-01-15T13:41:53.754Z,41.65
2023-01-15T13:44:22.785Z,32.63
2023-01-15T13:47:11.120Z,38.63
2023-01-15T13:49:50.477Z,38.33
2023-01-15T13:52:31.547Z,36.10
2023-01-15T13:55:11.848Z,37.65
2023-01-15T13:57:41.094Z,38.65
2023-01-15T14:00:28.417Z,39.70
2023-01-15T14:03:04.021Z,37.70
2023-01-15T14:05:34.420Z,40.80
2023-01-15T14:08:04.121Z,39.50
2023-01-15T14:10:30.865Z,50.05
2023-01-15T14:13:15.443Z,41.53
2023-01-15T14:16:11.102Z,42.65
2023-01-15T14:19:08.384Z,39.25
2023-01-15T14:22:02.904Z,42.38
2023-01-15T14:25:13.051Z,44.40
2023-01-15T14:27:54.464Z,44.08
2023-01-15T14:31:05.838Z,42.75
2023-01-15T14:33:35.226Z,54.20
2023-01-15T14:36:20.131Z,44.03
2023-01-15T14:38:52.352Z,55.30
2023-01-15T14:41:28.191Z,55.38
2023-01-15T14:43:55.808Z,43.10
2023-01-15T14:46:34.411Z,46.92
2023-01-15T14:49:02.385Z,41.50
2023-01-15T14:51:34.050Z,44.25
2023-01-15T14:54:13.355Z,46.38
2023-01-15T14:56:45.438Z,39.78
2023-01-15T14:59:25.762Z,42.50
2023-01-15T15:01:57.243Z,42.50
2023-01-15T15:04:40.764Z,41.85
2023-01-15T15:07:24.513Z,43.28
2023-01-15T15:10:17.565Z,41.33
2023-01-15T15:15:57.961Z,53.22
2023-01-15T15:18:29.410Z,43.72
2023-01-15T15:20:59.286Z,46.35
2023-01-15T15:23:40.147Z,46.65
2023-01-15T15:26:26.246Z,49.88
2023-01-15T15:29:01.065Z,50.38
2023-01-15T15:31:31.273Z,47.65
2023-01-15T15:33:59.541Z,43.22
2023-01-15T15:36:30.056Z,50.13
2023-01-15T15:38:59.627Z,53.25
2023-01-15T15:41:49.537Z,54.35
2023-01-15T15:44:41.816Z,53.38
2023-01-15T15:47:56.201Z,55.95
2023-01-15T15:50:32.194Z,53.63
2023-01-15T15:53:04.208Z,53.47
2023-01-15T15:55:43.934Z,45.08
2023-01-15T15:58:26.279Z,47.78
2023-01-15T16:00:54.183Z,47.15
2023-01-15T16:03:32.523Z,54.50
2023-01-15T16:05:59.608Z,50.80
2023-01-15T16:08:27.707Z,49.17
2023-01-15T16:11:06.511Z,48.03
2023-01-15T16:13:41.467Z,49.97
2023-01-15T16:16:09.407Z,49.47
2023-01-15T16:18:44.511Z,54.53
2023-01-15T16:21:18.747Z,46.40
2023-01-15T16:23:59.571Z,49.20
2023-01-15T16:26:35.085Z,49.83
2023-01-15T16:29:05.840Z,45.10
2023-01-15T16:31:37.230Z,47.60
2023-01-15T16:34:05.466Z,46.28
2023-01-15T16:36:45.382Z,46.53
2023-01-15T16:39:32.572Z,48.78
2023-01-15T16:42:02.186Z,46.88
2023-01-15T16:44:49.910Z,46.03
2023-01-15T16:47:25.769Z,46.92
2023-01-15T16:49:52.996Z,47.75
2023-01-15T16:52:56.104Z,44.13
2023-01-15T16:55:34.719Z,44.40
2023-01-15T16:58:13.480Z,44.10
2023-01-15T17:00:47.792Z,47.40
2023-01-15T17:03:23.472Z,46.90
2023-01-15T17:05:53.827Z,47.17
2023-01-15T17:08:24.161Z,50.08
2023-01-15T17:11:00.004Z,51.28
2023-01-15T17:13:38.560Z,54.53
2023-01-15T17:16:07.344Z,50.30
2023-01-15T17:18:34.351Z,47.25
2023-01-15T17:21:01.336Z,49.78
2023-01-15T17:23:30.472Z,47.40
2023-01-15T17:25:59.314Z,50.55
2023-01-15T17:28:26.142Z,50.72
2023-01-15T17:30:58.329Z,48.83
2023-01-15T17:33:25.268Z,49.70
2023-01-15T17:35:53.650Z,57.55
2023-01-15T17:38:20.631Z,51.05
2023-01-15T17:40:47.539Z,50.65
2023-01-15T17:43:16.017Z,53.38
2023-01-15T17:45:43.194Z,89.40
2023-01-15T17:48:10.457Z,63.75
2023-01-15T17:50:37.836Z,58.85
2023-01-15T17:53:05.423Z,74.90
2023-01-15T17:55:51.168Z,57.55
2023-01-15T17:58:36.795Z,59.58
2023-01-15T18:01:30.348Z,62.20
2023-01-15T18:04:16.422Z,68.00
2023-01-15T18:06:48.405Z,65.45
2023-01-15T18:09:17.372Z,56.97
2023-01-15T18:11:44.505Z,57.50
2023-01-15T18:14:11.430Z,63.63
2023-01-15T18:16:39.032Z,54.35
2023-01-15T18:19:05.969Z,67.88
2023-01-15T18:21:32.801Z,71.43
2023-01-15T18:24:00.177Z,68.00
2023-01-15T18:26:27.016Z,55.78
2023-01-15T18:28:55.269Z,52.58
2023-01-15T18:31:22.217Z,58.78
2023-01-15T18:33:49.021Z,61.05
2023-01-15T18:36:15.916Z,65.50
2023-01-15T18:38:43.812Z,52.78
2023-01-15T18:41:35.978Z,50.10
2023-01-15T18:44:23.749Z,48.80
2023-01-15T18:46:54.739Z,52.05
2023-01-15T18:49:22.177Z,51.20
2023-01-15T18:52:09.073Z,63.97
2023-01-15T18:54:36.836Z,51.28
2023-01-15T18:57:04.372Z,49.30
2023-01-15T18:59:32.315Z,56.33
2023-01-15T19:01:59.437Z,50.83
2023-01-15T19:04:27.008Z,51.47
2023-01-15T19:06:54.269Z,55.92
2023-01-15T19:09:24.082Z,53.00
2023-01-15T19:11:52.223Z,51.45
2023-01-15T19:14:38.870Z,50.15
2023-01-15T19:17:25.419Z,51.92
2023-01-15T19:19:52.173Z,48.38
2023-01-15T19:22:37.917Z,49.78
2023-01-15T19:25:05.170Z,46.83
2023-01-15T19:27:32.040Z,48.25
2023-01-15T19:30:00.094Z,50.17
2023-01-15T19:32:26.992Z,47.78
2023-01-15T19:34:56.655Z,45.40
2023-01-15T19:37:24.878Z,46.50
2023-01-15T19:39:51.739Z,53.50
2023-01-15T19:42:38.161Z,45.95
2023-01-15T19:45:24.544Z,45.10
2023-01-15T19:48:10.234Z,47.53
2023-01-15T19:50:45.043Z,50.55
2023-01-15T19:53:13.092Z,59.42
2023-01-15T19:55:43.832Z,54.50
2023-01-15T19:58:13.255Z,53.75
2023-01-15T20:00:42.793Z,50.50
2023-01-15T20:03:12.234Z,51.55
2023-01-15T20:05:41.948Z,46.67
2023-01-15T20:08:12.850Z,51.72
2023-01-15T20:10:42.311Z,49.00
2023-01-15T20:13:55.577Z,43.95
2023-01-15T20:16:22.983Z,40.60
2023-01-15T20:18:50.394Z,39.15
2023-01-15T20:21:20.297Z,41.40
2023-01-15T20:23:47.883Z,37.15
2023-01-15T20:26:15.453Z,39.63
2023-01-15T20:28:43.029Z,37.63
2023-01-15T20:31:18.190Z,41.83
2023-01-15T20:33:46.049Z,42.45
2023-01-15T20:36:13.013Z,43.33
2023-01-15T20:38:39.869Z,41.55
2023-01-15T20:41:29.571Z,42.85
2023-01-15T20:44:15.018Z,55.97
2023-01-15T20:46:42.005Z,61.85
2023-01-15T20:49:27.269Z,44.53
2023-01-15T20:51:55.417Z,39.83
2023-01-15T20:54:23.193Z,39.80
2023-01-15T20:56:51.672Z,39.33
2023-01-15T20:59:18.575Z,44.72
2023-01-15T21:01:45.530Z,39.40
2023-01-15T21:04:13.676Z,44.50
2023-01-15T21:06:41.019Z,41.15
2023-01-15T21:09:07.985Z,40.53
2023-01-15T21:11:34.989Z,39.95
2023-01-15T21:14:01.832Z,37.28
2023-01-15T21:16:28.661Z,38.17
2023-01-15T21:18:55.449Z,44.63
2023-01-15T21:21:22.724Z,41.55
2023-01-15T21:23:50.334Z,39.15
2023-01-15T21:26:19.326Z,41.00
2023-01-15T21:28:46.199Z,39.97
2023-01-15T21:31:14.247Z,37.47
2023-01-15T21:33:41.192Z,35.95
